createdAt,value
2023-04-18T00:03:15.164Z,12.45
2023-04-18T00:07:03.237Z,12.17
2023-04-18T00:11:11.611Z,11.85
2023-04-18T00:15:11.735Z,11.52
2023-04-18T00:19:18.408Z,11.14
2023-04-18T00:23:14.121Z,11.02
2023-04-18T00:27:22.387Z,10.89
2023-04-18T00:31:20.451Z,10.96
2023-04-18T00:35:15.843Z,12.05
2023-04-18T00:39:08.255Z,12.06
2023-04-18T00:43:16.426Z,11.62
2023-04-18T00:47:15.642Z,11.33
2023-04-18T00:51:20.376Z,11.10
2023-04-18T00:55:10.228Z,10.92
2023-04-18T00:59:11.736Z,10.80
2023-04-18T01:02:59.696Z,10.83
2023-04-18T01:07:05.571Z,11.93
2023-04-18T01:11:14.832Z,11.99
2023-04-18T01:15:24.092Z,11.64
2023-04-18T01:19:23.117Z,11.31
2023-04-18T01:23:32.019Z,11.06
2023-04-18T01:27:40.172Z,10.83
2023-04-18T01:31:48.453Z,10.84
2023-04-18T01:35:56.583Z,12.17
2023-04-18T01:40:11.841Z,12.24
2023-04-18T01:44:20.143Z,11.80
2023-04-18T01:48:28.321Z,11.39
2023-04-18T01:52:36.455Z,11.01
2023-04-18T01:56:14.622Z,10.73
2023-04-18T01:59:39.267Z,10.52
2023-04-18T02:03:17.856Z,10.34
2023-04-18T02:07:26.110Z,11.68
2023-04-18T02:11:17.235Z,11.94
2023-04-18T02:15:25.370Z,11.58
2023-04-18T02:19:33.544Z,11.17
2023-04-18T02:23:41.662Z,10.82
2023-04-18T02:27:49.874Z,10.59
2023-04-18T02:31:56.791Z,10.63
2023-04-18T02:36:05.149Z,12.02
2023-04-18T02:39:55.877Z,12.04
2023-04-18T02:44:04.048Z,11.68
2023-04-18T02:47:54.577Z,11.29
2023-04-18T02:52:04.244Z,10.95
2023-04-18T02:56:12.390Z,10.70
2023-04-18T03:00:33.097Z,10.47
2023-04-18T03:04:56.146Z,10.63
2023-04-18T03:08:47.293Z,11.97
2023-04-18T03:12:45.636Z,12.00
2023-04-18T03:16:55.208Z,11.61
2023-04-18T03:21:03.953Z,11.20
2023-04-18T03:24:52.128Z,10.85
2023-04-18T03:29:00.392Z,10.62
2023-04-18T03:33:07.218Z,10.43
2023-04-18T03:37:15.418Z,10.53
2023-04-18T03:41:23.588Z,11.92
2023-04-18T03:45:25.813Z,11.96
2023-04-18T03:49:34.067Z,11.61
2023-04-18T03:53:24.058Z,11.25
2023-04-18T03:57:32.237Z,10.93
2023-04-18T04:01:34.325Z,10.70
2023-04-18T04:05:42.647Z,10.49
2023-04-18T04:09:13.906Z,10.36
2023-04-18T04:12:36.687Z,10.26
2023-04-18T04:16:13.696Z,10.29
2023-04-18T04:19:49.170Z,11.63
2023-04-18T04:23:40.202Z,12.23
2023-04-18T04:27:06.995Z,12.11
2023-04-18T04:30:43.638Z,11.89
2023-04-18T04:33:33.361Z,11.70
2023-04-18T04:36:33.160Z,11.56
2023-04-18T04:39:23.310Z,11.43
2023-04-18T04:43:29.040Z,11.33
2023-04-18T04:47:28.397Z,11.30
2023-04-18T04:50:47.007Z,11.27
2023-04-18T04:54:20.865Z,11.31
2023-04-18T04:58:04.057Z,12.77
2023-04-18T05:01:41.582Z,13.41
2023-04-18T05:04:44.216Z,13.28
2023-04-18T05:08:19.264Z,13.06
2023-04-18T05:11:30.522Z,12.85
2023-04-18T05:14:23.498Z,12.68
2023-04-18T05:16:56.725Z,12.54
2023-04-18T05:20:14.708Z,12.48
2023-04-18T05:22:59.338Z,12.47
2023-04-18T05:25:57.584Z,12.47
2023-04-18T05:28:48.007Z,12.46
2023-04-18T05:32:25.965Z,12.47
2023-04-18T05:35:47.414Z,12.39
2023-04-18T05:38:49.123Z,12.49
2023-04-18T05:42:37.419Z,12.56
2023-04-18T05:45:13.582Z,12.84
2023-04-18T05:48:21.428Z,13.18
2023-04-18T05:52:12.013Z,13.85
2023-04-18T05:55:48.905Z,14.37
2023-04-18T05:58:52.713Z,14.34
2023-04-18T06:01:51.698Z,14.39
2023-04-18T06:04:22.268Z,14.50
2023-04-18T06:07:16.336Z,14.56
2023-04-18T06:10:17.101Z,14.62
2023-04-18T06:12:44.274Z,14.59
2023-04-18T06:15:31.935Z,14.38
2023-04-18T06:18:30.287Z,14.33
2023-04-18T06:21:31.469Z,14.17
2023-04-18T06:24:09.455Z,14.09
2023-04-18T06:27:47.344Z,13.99
2023-04-18T06:30:22.025Z,14.15
2023-04-18T06:33:11.229Z,14.23
2023-04-18T06:35:48.857Z,14.54
2023-04-18T06:38:35.104Z,14.98
2023-04-18T06:41:05.124Z,15.10
2023-04-18T06:43:32.650Z,15.48
2023-04-18T06:46:21.577Z,15.41
2023-04-18T06:48:59.798Z,15.79
2023-04-18T06:51:30.082Z,15.87
2023-04-18T06:54:27.457Z,16.54
2023-04-18T06:56:54.747Z,17.38
2023-04-18T07:00:02.643Z,18.17
2023-04-18T07:03:13.597Z,19.14
2023-04-18T07:05:44.318Z,19.85
2023-04-18T07:08:19.087Z,20.44
2023-04-18T07:11:15.814Z,20.70
2023-04-18T07:13:43.444Z,21.11
2023-04-18T07:16:50.123Z,21.08
2023-04-18T07:19:45.497Z,20.86
2023-04-18T07:22:38.689Z,20.74
2023-04-18T07:25:56.361Z,20.45
2023-04-18T07:29:14.403Z,19.42
2023-04-18T07:31:53.577Z,19.24
2023-04-18T07:34:37.309Z,18.87
2023-04-18T07:37:04.856Z,19.35
2023-04-18T07:39:35.968Z,19.69
2023-04-18T07:42:12.113Z,20.06
2023-04-18T07:45:17.913Z,20.61
2023-04-18T07:47:50.964Z,21.27
2023-04-18T07:50:57.610Z,21.64
2023-04-18T07:53:45.021Z,21.81
2023-04-18T07:56:35.326Z,21.65
2023-04-18T07:59:18.123Z,21.26
2023-04-18T08:01:45.932Z,20.68
2023-04-18T08:04:14.772Z,20.82
2023-04-18T08:07:37.184Z,21.06
2023-04-18T08:10:25.328Z,20.60
2023-04-18T08:13:26.148Z,20.26
2023-04-18T08:15:53.609Z,19.86
2023-04-18T08:18:44.843Z,18.90
2023-04-18T08:21:31.332Z,18.43
2023-04-18T08:24:01.418Z,17.96
2023-04-18T08:26:34.534Z,17.57
2023-04-18T08:29:34.615Z,17.17
2023-04-18T08:32:20.764Z,16.88
2023-04-18T08:34:48.382Z,16.70
2023-04-18T08:37:28.555Z,16.33
2023-04-18T08:40:39.499Z,16.22
2023-04-18T08:43:09.483Z,15.99
2023-04-18T08:46:12.752Z,15.79
2023-04-18T08:48:40.117Z,15.58
2023-04-18T08:51:07.958Z,15.47
2023-04-18T08:54:38.825Z,15.72
2023-04-18T08:58:37.623Z,15.87
2023-04-18T09:01:25.267Z,16.01
2023-04-18T09:04:03.584Z,16.40
2023-04-18T09:06:36.453Z,16.73
2023-04-18T09:09:37.357Z,17.26
2023-04-18T09:12:13.609Z,18.02
2023-04-18T09:15:16.623Z,18.38
2023-04-18T09:18:20.107Z,18.62
2023-04-18T09:21:19.723Z,18.81
2023-04-18T09:24:27.234Z,19.09
2023-04-18T09:26:59.828Z,19.10
2023-04-18T09:30:08.615Z,19.04
2023-04-18T09:32:57.466Z,18.65
2023-04-18T09:35:34.845Z,18.37
2023-04-18T09:38:14.911Z,18.23
2023-04-18T09:41:09.518Z,17.82
2023-04-18T09:43:48.483Z,17.91
2023-04-18T09:46:28.164Z,17.72
2023-04-18T09:48:57.967Z,17.61
2023-04-18T09:51:25.127Z,17.47
2023-04-18T09:53:55.299Z,17.42
2023-04-18T09:56:41.124Z,17.25
2023-04-18T09:59:10.035Z,17.08
2023-04-18T10:01:37.684Z,16.99
2023-04-18T10:04:17.922Z,17.09
2023-04-18T10:06:48.633Z,16.98
2023-04-18T10:09:16.585Z,17.12
2023-04-18T10:11:43.753Z,17.02
2023-04-18T10:14:13.042Z,16.96
2023-04-18T10:16:40.809Z,16.78
2023-04-18T10:19:25.428Z,16.83
2023-04-18T10:22:12.655Z,16.72
2023-04-18T10:24:57.341Z,16.57
2023-04-18T10:28:08.177Z,16.51
2023-04-18T10:30:44.463Z,16.43
2023-04-18T10:33:37.117Z,16.38
2023-04-18T10:36:09.321Z,16.29
2023-04-18T10:39:32.005Z,16.02
2023-04-18T10:42:20.509Z,16.13
2023-04-18T10:45:19.633Z,16.17
2023-04-18T10:51:40.768Z,16.12
2023-04-18T10:54:12.192Z,16.07
2023-04-18T10:56:58.355Z,16.06
2023-04-18T10:59:31.171Z,15.86
2023-04-18T11:02:24.600Z,15.86
2023-04-18T11:05:18.583Z,15.91
2023-04-18T11:07:56.341Z,15.55
2023-04-18T11:10:26.353Z,15.39
2023-04-18T11:12:54.784Z,15.42
2023-04-18T11:15:45.286Z,15.59
2023-04-18T11:18:16.130Z,15.64
2023-04-18T11:21:06.496Z,15.83
2023-04-18T11:23:39.726Z,16.03
2023-04-18T11:26:07.674Z,16.30
2023-04-18T11:28:48.051Z,16.34
2023-04-18T11:32:14.447Z,16.82
2023-04-18T11:34:55.261Z,17.40
2023-04-18T11:37:50.170Z,17.59
2023-04-18T11:40:46.461Z,17.68
2023-04-18T11:43:24.608Z,17.72
2023-04-18T11:46:18.699Z,17.74
2023-04-18T11:49:06.600Z,18.04
2023-04-18T11:51:50.200Z,18.30
2023-04-18T11:55:08.862Z,18.66
2023-04-18T11:57:38.802Z,19.17
2023-04-18T12:00:43.789Z,19.73
2023-04-18T12:03:37.864Z,20.15
2023-04-18T12:06:29.337Z,20.18
2023-04-18T12:09:30.952Z,20.09
2023-04-18T12:12:41.642Z,20.04
2023-04-18T12:15:34.902Z,19.75
2023-04-18T12:18:48.521Z,18.96
2023-04-18T12:21:18.514Z,18.73
2023-04-18T12:24:16.720Z,18.49
2023-04-18T12:26:47.407Z,18.46
2023-04-18T12:29:14.795Z,18.59
2023-04-18T12:32:11.195Z,18.63
2023-04-18T12:34:39.629Z,18.61
2023-04-18T12:37:49.665Z,18.40
2023-04-18T12:40:39.245Z,18.21
2023-04-18T12:43:11.329Z,18.16
2023-04-18T12:45:59.550Z,18.22
2023-04-18T12:48:32.078Z,18.21
2023-04-18T12:51:39.715Z,17.98
2023-04-18T12:54:38.627Z,17.70
2023-04-18T12:57:31.692Z,17.63
2023-04-18T13:00:20.335Z,17.48
2023-04-18T13:03:15.545Z,17.60
2023-04-18T13:06:24.537Z,17.76
2023-04-18T13:09:21.303Z,17.96
2023-04-18T13:11:58.740Z,18.06
2023-04-18T13:14:26.729Z,18.12
2023-04-18T13:16:54.169Z,18.22
2023-04-18T13:19:44.734Z,18.20
2023-04-18T13:22:24.040Z,18.29
2023-04-18T13:25:00.542Z,17.90
2023-04-18T13:28:01.128Z,17.78
2023-04-18T13:30:32.161Z,17.60
2023-04-18T13:33:02.604Z,17.63
2023-04-18T13:35:32.815Z,17.77
2023-04-18T13:38:04.349Z,17.95
2023-04-18T13:41:12.348Z,18.20
2023-04-18T13:44:00.283Z,18.21
2023-04-18T13:46:49.049Z,17.91
2023-04-18T13:50:01.673Z,17.96
2023-04-18T13:53:20.984Z,17.77
2023-04-18T13:56:08.482Z,17.80
2023-04-18T13:58:41.219Z,17.82
2023-04-18T14:01:41.358Z,17.70
2023-04-18T14:04:35.533Z,17.51
2023-04-18T14:07:24.093Z,17.52
2023-04-18T14:10:05.931Z,17.53
2023-04-18T14:12:50.666Z,17.25
2023-04-18T14:15:23.161Z,17.15
2023-04-18T14:17:58.206Z,17.19
2023-04-18T14:20:58.536Z,17.09
2023-04-18T14:23:59.211Z,17.00
2023-04-18T14:26:46.031Z,16.86
2023-04-18T14:29:30.592Z,16.77
2023-04-18T14:31:58.434Z,16.78
2023-04-18T14:34:31.136Z,16.82
2023-04-18T14:37:00.246Z,16.88
2023-04-18T14:39:56.182Z,17.03
2023-04-18T14:42:43.922Z,17.21
2023-04-18T14:45:36.875Z,17.50
2023-04-18T14:48:10.352Z,17.51
2023-04-18T14:51:08.986Z,16.79
2023-04-18T14:53:38.409Z,16.69
2023-04-18T14:56:24.574Z,16.76
2023-04-18T14:59:02.809Z,16.44
2023-04-18T15:01:33.019Z,16.25
2023-04-18T15:04:04.581Z,16.18
2023-04-18T15:06:36.243Z,16.20
2023-04-18T15:09:27.082Z,16.13
2023-04-18T15:12:31.332Z,15.94
2023-04-18T15:15:13.198Z,15.66
2023-04-18T15:18:00.951Z,15.69
2023-04-18T15:20:54.114Z,15.59
2023-04-18T15:23:21.525Z,15.35
2023-04-18T15:25:49.064Z,15.43
2023-04-18T15:28:19.319Z,15.58
2023-04-18T15:31:00.039Z,15.64
2023-04-18T15:33:54.758Z,15.61
2023-04-18T15:36:24.895Z,15.60
2023-04-18T15:38:59.589Z,15.69
2023-04-18T15:41:33.650Z,15.78
2023-04-18T15:44:10.098Z,15.76
2023-04-18T15:46:37.415Z,15.74
2023-04-18T15:49:07.416Z,15.77
2023-04-18T15:52:06.909Z,15.76
2023-04-18T15:54:35.270Z,15.68
2023-04-18T15:57:03.135Z,15.59
2023-04-18T15:59:36.598Z,15.42
2023-04-18T16:02:04.114Z,15.29
2023-04-18T16:04:33.863Z,15.16
2023-04-18T16:07:08.368Z,15.06
2023-04-18T16:09:38.712Z,15.00
2023-04-18T16:12:11.156Z,15.07
2023-04-18T16:14:57.856Z,15.01
2023-04-18T16:17:28.082Z,14.88
2023-04-18T16:20:15.649Z,14.84
2023-04-18T16:22:51.430Z,14.75
2023-04-18T16:25:21.389Z,14.59
2023-04-18T16:28:30.072Z,14.56
2023-04-18T16:30:59.518Z,14.52
2023-04-18T16:33:34.297Z,14.48
2023-04-18T16:36:34.737Z,14.43
2023-04-18T16:39:04.802Z,14.38
2023-04-18T16:41:38.844Z,14.22
2023-04-18T16:44:12.456Z,14.07
2023-04-18T16:47:05.151Z,14.03
2023-04-18T16:50:01.996Z,14.01
2023-04-18T16:52:44.930Z,13.96
2023-04-18T16:55:19.349Z,13.93
2023-04-18T16:57:56.884Z,13.87
2023-04-18T17:00:24.285Z,13.83
2023-04-18T17:02:55.935Z,13.83
2023-04-18T17:05:39.392Z,13.83
2023-04-18T17:08:09.375Z,13.80
2023-04-18T17:10:42.590Z,13.77
2023-04-18T17:13:46.964Z,13.72
2023-04-18T17:16:26.399Z,13.66
2023-04-18T17:18:56.956Z,13.61
2023-04-18T17:21:24.480Z,13.57
2023-04-18T17:23:57.183Z,13.54
2023-04-18T17:26:27.845Z,13.50
2023-04-18T17:28:58.232Z,13.47
2023-04-18T17:31:25.718Z,13.43
2023-04-18T17:34:13.166Z,13.39
2023-04-18T17:36:46.705Z,13.37
2023-04-18T17:39:16.445Z,13.35
2023-04-18T17:41:50.736Z,13.32
2023-04-18T17:44:23.767Z,13.29
2023-04-18T17:46:58.747Z,13.25
2023-04-18T17:49:30.877Z,13.14
2023-04-18T17:52:01.476Z,13.03
2023-04-18T17:54:28.806Z,12.97
2023-04-18T17:56:56.806Z,12.89
2023-04-18T17:59:24.550Z,12.80
2023-04-18T18:01:51.807Z,12.77
2023-04-18T18:04:20.058Z,12.77
2023-04-18T18:06:54.986Z,12.76
2023-04-18T18:09:25.052Z,12.74
2023-04-18T18:11:56.020Z,12.72
2023-04-18T18:14:29.015Z,12.71
2023-04-18T18:16:56.679Z,12.70
2023-04-18T18:19:29.285Z,12.66
2023-04-18T18:21:56.680Z,12.62
2023-04-18T18:24:27.555Z,12.56
2023-04-18T18:27:44.180Z,12.51
2023-04-18T18:30:20.498Z,12.48
2023-04-18T18:32:54.322Z,12.44
2023-04-18T18:35:31.783Z,12.42
2023-04-18T18:38:07.336Z,12.41
2023-04-18T18:40:37.107Z,12.40
2023-04-18T18:43:16.510Z,12.39
2023-04-18T18:45:51.233Z,12.40
2023-04-18T18:48:23.383Z,12.40
2023-04-18T18:50:51.474Z,12.38
2023-04-18T18:53:19.060Z,12.34
2023-04-18T18:56:08.726Z,12.30
2023-04-18T18:58:39.177Z,12.24
2023-04-18T19:01:06.821Z,12.20
2023-04-18T19:03:34.899Z,12.15
2023-04-18T19:06:04.291Z,12.10
2023-04-18T19:08:39.167Z,12.04
2023-04-18T19:11:19.294Z,12.01
2023-04-18T19:13:57.881Z,11.99
2023-04-18T19:16:35.949Z,11.99
2023-04-18T19:19:03.705Z,11.99
2023-04-18T19:21:33.328Z,11.98
2023-04-18T19:24:00.513Z,11.96
2023-04-18T19:26:27.741Z,11.95
2023-04-18T19:28:55.316Z,11.93
2023-04-18T19:31:22.843Z,11.92
2023-04-18T19:33:58.822Z,11.92
2023-04-18T19:36:54.806Z,11.90
2023-04-18T19:40:14.284Z,11.86
2023-04-18T19:42:53.885Z,11.77
2023-04-18T19:45:38.952Z,11.73
2023-04-18T19:48:24.443Z,11.70
2023-04-18T19:51:02.902Z,11.63
2023-04-18T19:53:41.592Z,11.52
2023-04-18T19:56:13.332Z,11.49
2023-04-18T19:59:13.053Z,11.49
2023-04-18T20:02:01.434Z,11.50
2023-04-18T20:04:42.029Z,11.52
2023-04-18T20:07:15.126Z,11.59
2023-04-18T20:09:44.688Z,11.59
2023-04-18T20:12:55.375Z,11.59
2023-04-18T20:15:46.067Z,11.59
2023-04-18T20:18:25.610Z,11.58
2023-04-18T20:21:58.476Z,11.51
2023-04-18T20:24:49.197Z,11.46
2023-04-18T20:27:24.652Z,11.41
2023-04-18T20:29:52.095Z,11.37
2023-04-18T20:32:33.390Z,11.33
2023-04-18T20:35:04.499Z,11.24
2023-04-18T20:38:25.966Z,12.11
2023-04-18T20:41:21.285Z,12.80
2023-04-18T20:44:11.058Z,12.85
2023-04-18T20:47:32.726Z,12.66
2023-04-18T20:51:06.231Z,12.37
2023-04-18T20:54:13.670Z,12.11
2023-04-18T20:57:51.682Z,11.92
2023-04-18T21:01:42.268Z,11.76
2023-04-18T21:05:21.503Z,11.63
2023-04-18T21:08:17.562Z,11.49
2023-04-18T21:12:05.744Z,11.32
2023-04-18T21:16:07.038Z,11.16
2023-04-18T21:19:41.320Z,11.25
2023-04-18T21:23:32.263Z,12.64
2023-04-18T21:27:40.364Z,12.83
2023-04-18T21:31:23.060Z,12.46
2023-04-18T21:34:36.781Z,12.05
2023-04-18T21:38:37.478Z,11.68
2023-04-18T21:42:47.764Z,11.35
2023-04-18T21:46:41.157Z,11.08
2023-04-18T21:50:50.237Z,10.91
2023-04-18T21:54:14.222Z,10.85
2023-04-18T21:58:22.492Z,12.23
2023-04-18T22:02:10.620Z,12.41
2023-04-18T22:05:33.866Z,12.06
2023-04-18T22:09:08.800Z,11.69
2023-04-18T22:12:32.476Z,11.43
2023-04-18T22:16:09.282Z,11.16
2023-04-18T22:20:10.537Z,10.94
2023-04-18T22:23:59.485Z,10.81
2023-04-18T22:27:26.706Z,12.11
2023-04-18T22:31:07.450Z,12.22
2023-04-18T22:34:37.088Z,11.92
2023-04-18T22:38:43.882Z,11.54
2023-04-18T22:42:21.923Z,11.14
2023-04-18T22:46:22.097Z,10.91
2023-04-18T22:50:23.752Z,10.70
2023-04-18T22:54:32.886Z,10.48
2023-04-18T22:58:23.992Z,10.56
2023-04-18T23:02:20.915Z,11.92
2023-04-18T23:06:29.416Z,12.07
2023-04-18T23:10:11.180Z,11.70
2023-04-18T23:14:19.313Z,11.36
2023-04-18T23:18:17.237Z,11.03
2023-04-18T23:22:25.475Z,10.79
2023-04-18T23:26:33.714Z,10.79
2023-04-18T23:30:32.597Z,12.14
2023-04-18T23:34:00.609Z,12.17
2023-04-18T23:38:17.237Z,11.84
2023-04-18T23:42:04.167Z,11.44
2023-04-18T23:46:12.337Z,11.05
2023-04-18T23:50:00.448Z,10.72
2023-04-18T23:53:40.556Z,10.48
2023-04-18T23:57:31.682Z,10.38
